sensor_id;sensor_type;location;lat;lon;timestamp;P1;durP1;ratioP1;P2;durP2;ratioP2
10729;SDS011;5416;59.258;18.128;2023-05-24T00:01:01;4.32;;;4.22;;
10729;SDS011;5416;59.258;18.128;2023-05-24T00:03:28;4.20;;;4.10;;
10729;SDS011;5416;59.258;18.128;2023-05-24T00:05:58;4.57;;;4.47;;
10729;SDS011;5416;59.258;18.128;2023-05-24T00:08:26;4.47;;;4.38;;
10729;SDS011;5416;59.258;18.128;2023-05-24T00:10:53;4.57;;;4.45;;
10729;SDS011;5416;59.258;18.128;2023-05-24T00:13:21;4.32;;;4.22;;
10729;SDS011;5416;59.258;18.128;2023-05-24T00:15:48;4.50;;;4.40;;
10729;SDS011;5416;59.258;18.128;2023-05-24T00:18:17;4.10;;;4.00;;
10729;SDS011;5416;59.258;18.128;2023-05-24T00:20:44;4.38;;;4.28;;
10729;SDS011;5416;59.258;18.128;2023-05-24T00:23:12;4.35;;;4.25;;
10729;SDS011;5416;59.258;18.128;2023-05-24T00:25:39;4.03;;;3.93;;
10729;SDS011;5416;59.258;18.128;2023-05-24T00:28:06;3.85;;;3.75;;
10729;SDS011;5416;59.258;18.128;2023-05-24T00:30:34;4.07;;;3.97;;
10729;SDS011;5416;59.258;18.128;2023-05-24T00:33:01;4.10;;;4.00;;
10729;SDS011;5416;59.258;18.128;2023-05-24T00:35:30;4.10;;;4.00;;
10729;SDS011;5416;59.258;18.128;2023-05-24T00:37:57;3.80;;;3.70;;
10729;SDS011;5416;59.258;18.128;2023-05-24T00:40:24;3.80;;;3.70;;
10729;SDS011;5416;59.258;18.128;2023-05-24T00:42:52;4.03;;;3.92;;
10729;SDS011;5416;59.258;18.128;2023-05-24T00:45:19;4.07;;;3.97;;
10729;SDS011;5416;59.258;18.128;2023-05-24T00:47:46;3.67;;;3.58;;
10729;SDS011;5416;59.258;18.128;2023-05-24T00:50:14;3.60;;;3.50;;
10729;SDS011;5416;59.258;18.128;2023-05-24T00:52:42;3.95;;;3.85;;
10729;SDS011;5416;59.258;18.128;2023-05-24T00:55:10;4.07;;;3.97;;
10729;SDS011;5416;59.258;18.128;2023-05-24T00:57:38;3.90;;;3.80;;
10729;SDS011;5416;59.258;18.128;2023-05-24T01:00:05;3.97;;;3.88;;
10729;SDS011;5416;59.258;18.128;2023-05-24T01:02:33;3.72;;;3.63;;
10729;SDS011;5416;59.258;18.128;2023-05-24T01:05:01;3.70;;;3.60;;
10729;SDS011;5416;59.258;18.128;2023-05-24T01:07:32;3.70;;;3.60;;
10729;SDS011;5416;59.258;18.128;2023-05-24T01:10:06;3.30;;;3.20;;
10729;SDS011;5416;59.258;18.128;2023-05-24T01:12:39;4.25;;;4.15;;
10729;SDS011;5416;59.258;18.128;2023-05-24T01:15:14;4.40;;;4.30;;
10729;SDS011;5416;59.258;18.128;2023-05-24T01:17:45;4.25;;;4.15;;
10729;SDS011;5416;59.258;18.128;2023-05-24T01:20:16;4.30;;;4.20;;
10729;SDS011;5416;59.258;18.128;2023-05-24T01:22:49;4.60;;;4.50;;
10729;SDS011;5416;59.258;18.128;2023-05-24T01:25:26;4.40;;;4.30;;
10729;SDS011;5416;59.258;18.128;2023-05-24T01:27:57;4.40;;;4.30;;
10729;SDS011;5416;59.258;18.128;2023-05-24T01:30:24;4.18;;;4.07;;
10729;SDS011;5416;59.258;18.128;2023-05-24T01:32:52;4.43;;;4.32;;
10729;SDS011;5416;59.258;18.128;2023-05-24T01:35:20;4.40;;;4.30;;
10729;SDS011;5416;59.258;18.128;2023-05-24T01:37:47;4.88;;;4.68;;
10729;SDS011;5416;59.258;18.128;2023-05-24T01:40:15;4.88;;;4.68;;
10729;SDS011;5416;59.258;18.128;2023-05-24T01:42:43;4.90;;;4.70;;
10729;SDS011;5416;59.258;18.128;2023-05-24T01:45:13;4.53;;;4.43;;
10729;SDS011;5416;59.258;18.128;2023-05-24T01:47:45;4.40;;;4.30;;
10729;SDS011;5416;59.258;18.128;2023-05-24T01:50:17;4.85;;;4.65;;
10729;SDS011;5416;59.258;18.128;2023-05-24T01:52:44;4.20;;;4.10;;
10729;SDS011;5416;59.258;18.128;2023-05-24T01:55:12;4.38;;;4.28;;
10729;SDS011;5416;59.258;18.128;2023-05-24T01:57:41;4.20;;;4.10;;
10729;SDS011;5416;59.258;18.128;2023-05-24T02:00:10;4.07;;;3.97;;
10729;SDS011;5416;59.258;18.128;2023-05-24T02:02:38;3.80;;;3.70;;
10729;SDS011;5416;59.258;18.128;2023-05-24T02:05:06;4.20;;;4.10;;
10729;SDS011;5416;59.258;18.128;2023-05-24T02:07:33;4.18;;;4.07;;
10729;SDS011;5416;59.258;18.128;2023-05-24T02:10:01;3.78;;;3.67;;
10729;SDS011;5416;59.258;18.128;2023-05-24T02:12:28;4.25;;;4.15;;
10729;SDS011;5416;59.258;18.128;2023-05-24T02:14:56;4.55;;;4.45;;
10729;SDS011;5416;59.258;18.128;2023-05-24T02:17:25;4.03;;;3.92;;
10729;SDS011;5416;59.258;18.128;2023-05-24T02:19:54;4.45;;;4.35;;
10729;SDS011;5416;59.258;18.128;2023-05-24T02:22:21;4.60;;;4.43;;
10729;SDS011;5416;59.258;18.128;2023-05-24T02:24:48;4.13;;;4.03;;
10729;SDS011;5416;59.258;18.128;2023-05-24T02:27:15;4.13;;;4.03;;
10729;SDS011;5416;59.258;18.128;2023-05-24T02:29:43;4.23;;;4.13;;
10729;SDS011;5416;59.258;18.128;2023-05-24T02:32:11;3.90;;;3.80;;
10729;SDS011;5416;59.258;18.128;2023-05-24T02:34:39;4.30;;;4.20;;
10729;SDS011;5416;59.258;18.128;2023-05-24T02:37:08;4.18;;;4.07;;
10729;SDS011;5416;59.258;18.128;2023-05-24T02:39:39;4.40;;;4.30;;
10729;SDS011;5416;59.258;18.128;2023-05-24T02:42:07;4.17;;;4.07;;
10729;SDS011;5416;59.258;18.128;2023-05-24T02:44:35;4.30;;;4.20;;
10729;SDS011;5416;59.258;18.128;2023-05-24T02:47:02;3.85;;;3.75;;
10729;SDS011;5416;59.258;18.128;2023-05-24T02:49:30;4.40;;;4.30;;
10729;SDS011;5416;59.258;18.128;2023-05-24T02:51:57;4.22;;;4.13;;
10729;SDS011;5416;59.258;18.128;2023-05-24T02:54:26;4.15;;;4.05;;
10729;SDS011;5416;59.258;18.128;2023-05-24T02:56:53;3.90;;;3.80;;
10729;SDS011;5416;59.258;18.128;2023-05-24T02:59:22;4.23;;;4.13;;
10729;SDS011;5416;59.258;18.128;2023-05-24T03:01:49;4.05;;;3.95;;
10729;SDS011;5416;59.258;18.128;2023-05-24T03:04:16;4.10;;;4.00;;
10729;SDS011;5416;59.258;18.128;2023-05-24T03:06:43;4.20;;;4.10;;
10729;SDS011;5416;59.258;18.128;2023-05-24T03:09:11;3.83;;;3.73;;
10729;SDS011;5416;59.258;18.128;2023-05-24T03:11:41;4.10;;;4.00;;
10729;SDS011;5416;59.258;18.128;2023-05-24T03:14:09;4.30;;;4.20;;
10729;SDS011;5416;59.258;18.128;2023-05-24T03:16:39;3.93;;;3.83;;
10729;SDS011;5416;59.258;18.128;2023-05-24T03:19:06;3.83;;;3.72;;
10729;SDS011;5416;59.258;18.128;2023-05-24T03:21:33;3.90;;;3.80;;
10729;SDS011;5416;59.258;18.128;2023-05-24T03:24:00;3.90;;;3.80;;
10729;SDS011;5416;59.258;18.128;2023-05-24T03:26:28;4.13;;;4.03;;
10729;SDS011;5416;59.258;18.128;2023-05-24T03:28:57;4.07;;;3.97;;
10729;SDS011;5416;59.258;18.128;2023-05-24T03:31:24;4.18;;;4.07;;
10729;SDS011;5416;59.258;18.128;2023-05-24T03:33:51;4.55;;;4.45;;
10729;SDS011;5416;59.258;18.128;2023-05-24T03:36:19;4.90;;;4.70;;
10729;SDS011;5416;59.258;18.128;2023-05-24T03:38:46;4.22;;;4.13;;
10729;SDS011;5416;59.258;18.128;2023-05-24T03:41:14;4.78;;;4.57;;
10729;SDS011;5416;59.258;18.128;2023-05-24T03:43:41;4.40;;;4.30;;
10729;SDS011;5416;59.258;18.128;2023-05-24T03:46:09;4.15;;;4.05;;
10729;SDS011;5416;59.258;18.128;2023-05-24T03:48:37;4.80;;;4.60;;
10729;SDS011;5416;59.258;18.128;2023-05-24T03:51:04;4.30;;;4.20;;
10729;SDS011;5416;59.258;18.128;2023-05-24T03:53:33;4.38;;;4.28;;
10729;SDS011;5416;59.258;18.128;2023-05-24T03:56:00;4.20;;;4.10;;
10729;SDS011;5416;59.258;18.128;2023-05-24T03:58:28;4.73;;;4.57;;
10729;SDS011;5416;59.258;18.128;2023-05-24T04:00:55;4.80;;;4.60;;
10729;SDS011;5416;59.258;18.128;2023-05-24T04:03:24;4.45;;;4.35;;
10729;SDS011;5416;59.258;18.128;2023-05-24T04:05:51;4.80;;;4.60;;
10729;SDS011;5416;59.258;18.128;2023-05-24T04:08:19;4.90;;;4.70;;
10729;SDS011;5416;59.258;18.128;2023-05-24T04:10:46;4.53;;;4.43;;
10729;SDS011;5416;59.258;18.128;2023-05-24T04:13:13;4.88;;;4.68;;
10729;SDS011;5416;59.258;18.128;2023-05-24T04:15:40;4.35;;;4.25;;
10729;SDS011;5416;59.258;18.128;2023-05-24T04:18:08;4.53;;;4.43;;
10729;SDS011;5416;59.258;18.128;2023-05-24T04:20:37;4.07;;;3.97;;
10729;SDS011;5416;59.258;18.128;2023-05-24T04:23:05;4.50;;;4.40;;
10729;SDS011;5416;59.258;18.128;2023-05-24T04:25:32;4.70;;;4.50;;
10729;SDS011;5416;59.258;18.128;2023-05-24T04:28:00;4.55;;;4.45;;
10729;SDS011;5416;59.258;18.128;2023-05-24T04:30:28;4.32;;;4.22;;
10729;SDS011;5416;59.258;18.128;2023-05-24T04:32:55;4.45;;;4.35;;
10729;SDS011;5416;59.258;18.128;2023-05-24T04:35:22;4.40;;;4.30;;
10729;SDS011;5416;59.258;18.128;2023-05-24T04:37:51;4.28;;;4.18;;
10729;SDS011;5416;59.258;18.128;2023-05-24T04:40:18;4.78;;;4.57;;
10729;SDS011;5416;59.258;18.128;2023-05-24T04:42:47;4.35;;;4.25;;
10729;SDS011;5416;59.258;18.128;2023-05-24T04:45:14;4.70;;;4.50;;
10729;SDS011;5416;59.258;18.128;2023-05-24T04:47:41;4.40;;;4.30;;
10729;SDS011;5416;59.258;18.128;2023-05-24T04:50:09;4.35;;;4.25;;
10729;SDS011;5416;59.258;18.128;2023-05-24T04:52:36;4.40;;;4.30;;
10729;SDS011;5416;59.258;18.128;2023-05-24T04:55:05;4.38;;;4.28;;
10729;SDS011;5416;59.258;18.128;2023-05-24T04:57:33;4.43;;;4.32;;
10729;SDS011;5416;59.258;18.128;2023-05-24T05:00:00;4.50;;;4.40;;
10729;SDS011;5416;59.258;18.128;2023-05-24T05:02:28;4.45;;;4.25;;
10729;SDS011;5416;59.258;18.128;2023-05-24T05:04:56;4.43;;;4.33;;
10729;SDS011;5416;59.258;18.128;2023-05-24T05:07:23;4.30;;;4.20;;
10729;SDS011;5416;59.258;18.128;2023-05-24T05:09:50;4.30;;;4.20;;
10729;SDS011;5416;59.258;18.128;2023-05-24T05:12:19;4.65;;;4.47;;
10729;SDS011;5416;59.258;18.128;2023-05-24T05:14:46;4.65;;;4.47;;
10729;SDS011;5416;59.258;18.128;2023-05-24T05:17:14;4.53;;;4.43;;
10729;SDS011;5416;59.258;18.128;2023-05-24T05:19:42;4.82;;;4.63;;
10729;SDS011;5416;59.258;18.128;2023-05-24T05:22:11;4.20;;;4.10;;
10729;SDS011;5416;59.258;18.128;2023-05-24T05:24:38;4.20;;;4.10;;
10729;SDS011;5416;59.258;18.128;2023-05-24T05:27:05;4.00;;;3.90;;
10729;SDS011;5416;59.258;18.128;2023-05-24T05:29:34;4.45;;;4.35;;
10729;SDS011;5416;59.258;18.128;2023-05-24T05:32:01;4.40;;;4.30;;
10729;SDS011;5416;59.258;18.128;2023-05-24T05:34:29;4.47;;;4.28;;
10729;SDS011;5416;59.258;18.128;2023-05-24T05:36:56;4.25;;;4.15;;
10729;SDS011;5416;59.258;18.128;2023-05-24T05:39:23;3.88;;;3.78;;
10729;SDS011;5416;59.258;18.128;2023-05-24T05:41:51;3.83;;;3.72;;
10729;SDS011;5416;59.258;18.128;2023-05-24T05:44:18;3.70;;;3.60;;
10729;SDS011;5416;59.258;18.128;2023-05-24T05:46:47;3.50;;;3.40;;
10729;SDS011;5416;59.258;18.128;2023-05-24T05:49:14;3.38;;;3.28;;
10729;SDS011;5416;59.258;18.128;2023-05-24T05:51:42;3.50;;;3.40;;
10729;SDS011;5416;59.258;18.128;2023-05-24T05:54:11;3.17;;;3.08;;
10729;SDS011;5416;59.258;18.128;2023-05-24T05:56:42;3.30;;;3.20;;
10729;SDS011;5416;59.258;18.128;2023-05-24T05:59:13;3.10;;;3.00;;
10729;SDS011;5416;59.258;18.128;2023-05-24T06:01:40;3.40;;;3.30;;
10729;SDS011;5416;59.258;18.128;2023-05-24T06:04:09;3.20;;;3.10;;
10729;SDS011;5416;59.258;18.128;2023-05-24T06:06:36;3.30;;;3.20;;
10729;SDS011;5416;59.258;18.128;2023-05-24T06:09:03;3.05;;;2.95;;
10729;SDS011;5416;59.258;18.128;2023-05-24T06:11:31;2.90;;;2.80;;
10729;SDS011;5416;59.258;18.128;2023-05-24T06:13:58;3.10;;;3.00;;
10729;SDS011;5416;59.258;18.128;2023-05-24T06:16:26;3.10;;;3.00;;
10729;SDS011;5416;59.258;18.128;2023-05-24T06:18:53;3.00;;;2.90;;
10729;SDS011;5416;59.258;18.128;2023-05-24T06:21:22;3.10;;;3.00;;
10729;SDS011;5416;59.258;18.128;2023-05-24T06:23:50;3.00;;;2.90;;
10729;SDS011;5416;59.258;18.128;2023-05-24T06:26:18;3.20;;;3.10;;
10729;SDS011;5416;59.258;18.128;2023-05-24T06:28:46;3.15;;;3.05;;
10729;SDS011;5416;59.258;18.128;2023-05-24T06:31:13;2.90;;;2.80;;
10729;SDS011;5416;59.258;18.128;2023-05-24T06:33:41;3.10;;;3.00;;
10729;SDS011;5416;59.258;18.128;2023-05-24T06:36:08;2.60;;;2.50;;
10729;SDS011;5416;59.258;18.128;2023-05-24T06:38:37;2.97;;;2.88;;
10729;SDS011;5416;59.258;18.128;2023-05-24T06:41:04;2.80;;;2.70;;
10729;SDS011;5416;59.258;18.128;2023-05-24T06:43:32;3.03;;;2.92;;
10729;SDS011;5416;59.258;18.128;2023-05-24T06:46:00;2.78;;;2.67;;
10729;SDS011;5416;59.258;18.128;2023-05-24T06:48:27;2.80;;;2.70;;
10729;SDS011;5416;59.258;18.128;2023-05-24T06:50:55;3.33;;;3.22;;
10729;SDS011;5416;59.258;18.128;2023-05-24T06:53:22;3.00;;;2.90;;
10729;SDS011;5416;59.258;18.128;2023-05-24T06:55:51;2.97;;;2.87;;
10729;SDS011;5416;59.258;18.128;2023-05-24T06:58:18;2.95;;;2.85;;
10729;SDS011;5416;59.258;18.128;2023-05-24T07:00:45;3.20;;;3.10;;
10729;SDS011;5416;59.258;18.128;2023-05-24T07:03:14;3.13;;;3.03;;
10729;SDS011;5416;59.258;18.128;2023-05-24T07:05:41;3.05;;;2.95;;
10729;SDS011;5416;59.258;18.128;2023-05-24T07:08:09;2.90;;;2.80;;
10729;SDS011;5416;59.258;18.128;2023-05-24T07:10:36;3.78;;;3.67;;
10729;SDS011;5416;59.258;18.128;2023-05-24T07:13:05;3.30;;;3.20;;
10729;SDS011;5416;59.258;18.128;2023-05-24T07:15:33;3.50;;;3.40;;
10729;SDS011;5416;59.258;18.128;2023-05-24T07:18:00;3.50;;;3.40;;
10729;SDS011;5416;59.258;18.128;2023-05-24T07:20:27;3.10;;;3.00;;
10729;SDS011;5416;59.258;18.128;2023-05-24T07:22:55;3.10;;;3.00;;
10729;SDS011;5416;59.258;18.128;2023-05-24T07:25:22;2.70;;;2.60;;
10729;SDS011;5416;59.258;18.128;2023-05-24T07:27:49;2.90;;;2.80;;
10729;SDS011;5416;59.258;18.128;2023-05-24T07:30:18;2.60;;;2.50;;
10729;SDS011;5416;59.258;18.128;2023-05-24T07:32:45;2.90;;;2.80;;
10729;SDS011;5416;59.258;18.128;2023-05-24T07:35:13;3.03;;;2.92;;
10729;SDS011;5416;59.258;18.128;2023-05-24T07:37:40;3.40;;;3.30;;
10729;SDS011;5416;59.258;18.128;2023-05-24T07:40:08;3.30;;;3.20;;
10729;SDS011;5416;59.258;18.128;2023-05-24T07:42:36;3.00;;;2.90;;
10729;SDS011;5416;59.258;18.128;2023-05-24T07:45:03;2.97;;;2.88;;
10729;SDS011;5416;59.258;18.128;2023-05-24T07:47:32;2.72;;;2.63;;
10729;SDS011;5416;59.258;18.128;2023-05-24T07:50:00;3.00;;;2.90;;
10729;SDS011;5416;59.258;18.128;2023-05-24T07:52:27;3.05;;;2.95;;
10729;SDS011;5416;59.258;18.128;2023-05-24T07:54:55;2.58;;;2.47;;
10729;SDS011;5416;59.258;18.128;2023-05-24T07:57:22;2.70;;;2.60;;
10729;SDS011;5416;59.258;18.128;2023-05-24T07:59:49;2.50;;;2.40;;
10729;SDS011;5416;59.258;18.128;2023-05-24T08:02:17;2.50;;;2.40;;
10729;SDS011;5416;59.258;18.128;2023-05-24T08:04:45;2.30;;;2.20;;
10729;SDS011;5416;59.258;18.128;2023-05-24T08:07:12;2.20;;;2.10;;
10729;SDS011;5416;59.258;18.128;2023-05-24T08:09:40;2.00;;;1.90;;
10729;SDS011;5416;59.258;18.128;2023-05-24T08:12:07;2.30;;;2.20;;
10729;SDS011;5416;59.258;18.128;2023-05-24T08:14:35;2.30;;;2.20;;
10729;SDS011;5416;59.258;18.128;2023-05-24T08:17:02;2.20;;;2.10;;
10729;SDS011;5416;59.258;18.128;2023-05-24T08:19:30;2.20;;;2.10;;
10729;SDS011;5416;59.258;18.128;2023-05-24T08:22:01;2.15;;;2.05;;
10729;SDS011;5416;59.258;18.128;2023-05-24T08:24:29;2.20;;;2.10;;
10729;SDS011;5416;59.258;18.128;2023-05-24T08:26:57;2.30;;;2.20;;
10729;SDS011;5416;59.258;18.128;2023-05-24T08:29:24;2.20;;;2.10;;
10729;SDS011;5416;59.258;18.128;2023-05-24T08:31:52;2.40;;;2.30;;
10729;SDS011;5416;59.258;18.128;2023-05-24T08:34:19;2.70;;;2.60;;
10729;SDS011;5416;59.258;18.128;2023-05-24T08:36:47;2.90;;;2.80;;
10729;SDS011;5416;59.258;18.128;2023-05-24T08:39:15;3.00;;;2.90;;
10729;SDS011;5416;59.258;18.128;2023-05-24T08:41:43;2.58;;;2.47;;
10729;SDS011;5416;59.258;18.128;2023-05-24T08:44:10;2.30;;;2.20;;
10729;SDS011;5416;59.258;18.128;2023-05-24T08:46:39;2.70;;;2.60;;
10729;SDS011;5416;59.258;18.128;2023-05-24T08:49:06;3.13;;;3.00;;
10729;SDS011;5416;59.258;18.128;2023-05-24T08:51:37;3.20;;;3.10;;
10729;SDS011;5416;59.258;18.128;2023-05-24T08:54:05;2.97;;;2.88;;
10729;SDS011;5416;59.258;18.128;2023-05-24T08:56:34;2.70;;;2.60;;
10729;SDS011;5416;59.258;18.128;2023-05-24T08:59:03;2.80;;;2.70;;
10729;SDS011;5416;59.258;18.128;2023-05-24T09:01:31;2.63;;;2.53;;
10729;SDS011;5416;59.258;18.128;2023-05-24T09:03:58;2.50;;;2.40;;
10729;SDS011;5416;59.258;18.128;2023-05-24T09:06:26;2.70;;;2.60;;
10729;SDS011;5416;59.258;18.128;2023-05-24T09:08:54;2.40;;;2.30;;
10729;SDS011;5416;59.258;18.128;2023-05-24T09:11:21;2.60;;;2.50;;
10729;SDS011;5416;59.258;18.128;2023-05-24T09:13:52;2.90;;;2.80;;
10729;SDS011;5416;59.258;18.128;2023-05-24T09:16:21;3.22;;;3.13;;
10729;SDS011;5416;59.258;18.128;2023-05-24T09:18:48;3.10;;;3.00;;
10729;SDS011;5416;59.258;18.128;2023-05-24T09:21:16;3.10;;;3.00;;
10729;SDS011;5416;59.258;18.128;2023-05-24T09:23:43;3.45;;;3.35;;
10729;SDS011;5416;59.258;18.128;2023-05-24T09:26:10;3.00;;;2.90;;
10729;SDS011;5416;59.258;18.128;2023-05-24T09:28:38;3.05;;;2.95;;
10729;SDS011;5416;59.258;18.128;2023-05-24T09:31:07;2.83;;;2.73;;
10729;SDS011;5416;59.258;18.128;2023-05-24T09:33:34;2.97;;;2.88;;
10729;SDS011;5416;59.258;18.128;2023-05-24T09:36:02;3.30;;;3.20;;
10729;SDS011;5416;59.258;18.128;2023-05-24T09:38:30;3.10;;;3.00;;
10729;SDS011;5416;59.258;18.128;2023-05-24T09:40:58;3.00;;;2.90;;
10729;SDS011;5416;59.258;18.128;2023-05-24T09:43:25;3.63;;;3.53;;
10729;SDS011;5416;59.258;18.128;2023-05-24T09:45:54;3.53;;;3.42;;
10729;SDS011;5416;59.258;18.128;2023-05-24T09:48:23;3.35;;;3.25;;
10729;SDS011;5416;59.258;18.128;2023-05-24T09:50:57;2.90;;;2.80;;
10729;SDS011;5416;59.258;18.128;2023-05-24T09:53:26;3.38;;;3.17;;
10729;SDS011;5416;59.258;18.128;2023-05-24T09:55:53;3.20;;;3.10;;
10729;SDS011;5416;59.258;18.128;2023-05-24T09:58:21;2.97;;;2.88;;
10729;SDS011;5416;59.258;18.128;2023-05-24T10:00:48;2.95;;;2.85;;
10729;SDS011;5416;59.258;18.128;2023-05-24T10:03:16;2.88;;;2.78;;
10729;SDS011;5416;59.258;18.128;2023-05-24T10:05:45;2.73;;;2.63;;
10729;SDS011;5416;59.258;18.128;2023-05-24T10:08:12;2.78;;;2.67;;
10729;SDS011;5416;59.258;18.128;2023-05-24T10:10:39;2.60;;;2.50;;
10729;SDS011;5416;59.258;18.128;2023-05-24T10:13:08;2.50;;;2.40;;
10729;SDS011;5416;59.258;18.128;2023-05-24T10:15:36;2.70;;;2.60;;
10729;SDS011;5416;59.258;18.128;2023-05-24T10:18:04;2.78;;;2.67;;
10729;SDS011;5416;59.258;18.128;2023-05-24T10:20:32;2.92;;;2.83;;
10729;SDS011;5416;59.258;18.128;2023-05-24T10:23:02;2.75;;;2.65;;
10729;SDS011;5416;59.258;18.128;2023-05-24T10:25:31;3.30;;;3.20;;
10729;SDS011;5416;59.258;18.128;2023-05-24T10:28:00;3.00;;;2.90;;
10729;SDS011;5416;59.258;18.128;2023-05-24T10:30:30;3.10;;;3.00;;
10729;SDS011;5416;59.258;18.128;2023-05-24T10:32:57;2.80;;;2.70;;
10729;SDS011;5416;59.258;18.128;2023-05-24T10:35:25;2.60;;;2.50;;
10729;SDS011;5416;59.258;18.128;2023-05-24T10:37:52;3.00;;;2.90;;
10729;SDS011;5416;59.258;18.128;2023-05-24T10:40:22;2.42;;;2.33;;
10729;SDS011;5416;59.258;18.128;2023-05-24T10:42:50;2.20;;;2.10;;
10729;SDS011;5416;59.258;18.128;2023-05-24T10:45:31;2.43;;;2.33;;
10729;SDS011;5416;59.258;18.128;2023-05-24T10:48:00;2.60;;;2.50;;
10729;SDS011;5416;59.258;18.128;2023-05-24T10:50:27;2.50;;;2.40;;
10729;SDS011;5416;59.258;18.128;2023-05-24T10:53:09;2.70;;;2.60;;
10729;SDS011;5416;59.258;18.128;2023-05-24T10:55:51;2.90;;;2.80;;
10729;SDS011;5416;59.258;18.128;2023-05-24T10:58:18;2.70;;;2.60;;
10729;SDS011;5416;59.258;18.128;2023-05-24T11:00:45;2.70;;;2.60;;
10729;SDS011;5416;59.258;18.128;2023-05-24T11:03:13;2.70;;;2.60;;
10729;SDS011;5416;59.258;18.128;2023-05-24T11:05:48;2.67;;;2.57;;
10729;SDS011;5416;59.258;18.128;2023-05-24T11:08:20;2.80;;;2.70;;
10729;SDS011;5416;59.258;18.128;2023-05-24T11:10:48;2.47;;;2.38;;
10729;SDS011;5416;59.258;18.128;2023-05-24T11:13:18;2.20;;;2.10;;
10729;SDS011;5416;59.258;18.128;2023-05-24T11:15:49;2.70;;;2.60;;
10729;SDS011;5416;59.258;18.128;2023-05-24T11:18:20;2.65;;;2.55;;
10729;SDS011;5416;59.258;18.128;2023-05-24T11:20:47;2.60;;;2.50;;
10729;SDS011;5416;59.258;18.128;2023-05-24T11:23:15;3.15;;;3.05;;
10729;SDS011;5416;59.258;18.128;2023-05-24T11:25:43;3.15;;;3.05;;
10729;SDS011;5416;59.258;18.128;2023-05-24T11:28:11;3.40;;;3.30;;
10729;SDS011;5416;59.258;18.128;2023-05-24T11:30:40;3.25;;;3.15;;
10729;SDS011;5416;59.258;18.128;2023-05-24T11:33:14;3.80;;;3.70;;
10729;SDS011;5416;59.258;18.128;2023-05-24T11:35:42;3.22;;;3.13;;
10729;SDS011;5416;59.258;18.128;2023-05-24T11:38:10;3.17;;;3.08;;
10729;SDS011;5416;59.258;18.128;2023-05-24T11:40:38;3.30;;;3.20;;
10729;SDS011;5416;59.258;18.128;2023-05-24T11:43:09;3.70;;;3.60;;
10729;SDS011;5416;59.258;18.128;2023-05-24T11:45:36;3.40;;;3.30;;
10729;SDS011;5416;59.258;18.128;2023-05-24T11:48:06;2.95;;;2.85;;
10729;SDS011;5416;59.258;18.128;2023-05-24T11:50:36;2.75;;;2.65;;
10729;SDS011;5416;59.258;18.128;2023-05-24T11:53:03;2.80;;;2.70;;
10729;SDS011;5416;59.258;18.128;2023-05-24T11:55:31;3.20;;;3.10;;
10729;SDS011;5416;59.258;18.128;2023-05-24T11:57:59;2.80;;;2.70;;
10729;SDS011;5416;59.258;18.128;2023-05-24T12:00:27;3.00;;;2.90;;
10729;SDS011;5416;59.258;18.128;2023-05-24T12:02:55;2.80;;;2.70;;
10729;SDS011;5416;59.258;18.128;2023-05-24T12:05:27;2.63;;;2.53;;
10729;SDS011;5416;59.258;18.128;2023-05-24T12:08:00;2.97;;;2.88;;
10729;SDS011;5416;59.258;18.128;2023-05-24T12:10:29;2.60;;;2.50;;
10729;SDS011;5416;59.258;18.128;2023-05-24T12:12:56;2.90;;;2.80;;
10729;SDS011;5416;59.258;18.128;2023-05-24T12:15:24;2.90;;;2.80;;
10729;SDS011;5416;59.258;18.128;2023-05-24T12:17:51;2.90;;;2.80;;
10729;SDS011;5416;59.258;18.128;2023-05-24T12:20:18;2.83;;;2.72;;
10729;SDS011;5416;59.258;18.128;2023-05-24T12:22:51;2.95;;;2.85;;
10729;SDS011;5416;59.258;18.128;2023-05-24T12:25:19;3.00;;;2.90;;
10729;SDS011;5416;59.258;18.128;2023-05-24T12:27:46;3.10;;;3.00;;
10729;SDS011;5416;59.258;18.128;2023-05-24T12:30:14;3.30;;;3.20;;
10729;SDS011;5416;59.258;18.128;2023-05-24T12:32:46;4.13;;;4.03;;
10729;SDS011;5416;59.258;18.128;2023-05-24T12:35:13;3.70;;;3.60;;
10729;SDS011;5416;59.258;18.128;2023-05-24T12:37:41;3.90;;;3.80;;
10729;SDS011;5416;59.258;18.128;2023-05-24T12:40:16;3.80;;;3.70;;
10729;SDS011;5416;59.258;18.128;2023-05-24T12:42:45;4.00;;;3.80;;
10729;SDS011;5416;59.258;18.128;2023-05-24T12:45:15;3.55;;;3.45;;
10729;SDS011;5416;59.258;18.128;2023-05-24T12:47:47;3.70;;;3.60;;
10729;SDS011;5416;59.258;18.128;2023-05-24T12:50:14;3.88;;;3.78;;
10729;SDS011;5416;59.258;18.128;2023-05-24T12:52:42;3.88;;;3.78;;
10729;SDS011;5416;59.258;18.128;2023-05-24T12:55:10;3.72;;;3.63;;
10729;SDS011;5416;59.258;18.128;2023-05-24T12:57:40;4.07;;;3.97;;
10729;SDS011;5416;59.258;18.128;2023-05-24T13:00:08;4.00;;;3.90;;
10729;SDS011;5416;59.258;18.128;2023-05-24T13:02:35;4.47;;;4.32;;
10729;SDS011;5416;59.258;18.128;2023-05-24T13:05:03;4.78;;;4.57;;
10729;SDS011;5416;59.258;18.128;2023-05-24T13:07:31;4.43;;;4.32;;
10729;SDS011;5416;59.258;18.128;2023-05-24T13:09:58;4.85;;;4.65;;
10729;SDS011;5416;59.258;18.128;2023-05-24T13:12:26;4.88;;;4.68;;
10729;SDS011;5416;59.258;18.128;2023-05-24T13:14:54;4.53;;;4.32;;
10729;SDS011;5416;59.258;18.128;2023-05-24T13:17:22;4.77;;;4.57;;
10729;SDS011;5416;59.258;18.128;2023-05-24T13:19:49;4.40;;;4.30;;
10729;SDS011;5416;59.258;18.128;2023-05-24T13:22:17;4.38;;;4.28;;
10729;SDS011;5416;59.258;18.128;2023-05-24T13:24:44;4.70;;;4.50;;
10729;SDS011;5416;59.258;18.128;2023-05-24T13:27:11;4.60;;;4.40;;
10729;SDS011;5416;59.258;18.128;2023-05-24T13:29:38;4.68;;;4.47;;
10729;SDS011;5416;59.258;18.128;2023-05-24T13:32:07;4.90;;;4.70;;
10729;SDS011;5416;59.258;18.128;2023-05-24T13:34:34;4.88;;;4.68;;
10729;SDS011;5416;59.258;18.128;2023-05-24T13:37:02;4.27;;;4.17;;
10729;SDS011;5416;59.258;18.128;2023-05-24T13:39:29;4.45;;;4.35;;
10729;SDS011;5416;59.258;18.128;2023-05-24T13:41:57;4.63;;;4.43;;
10729;SDS011;5416;59.258;18.128;2023-05-24T13:44:25;4.68;;;4.50;;
10729;SDS011;5416;59.258;18.128;2023-05-24T13:46:52;4.40;;;4.30;;
10729;SDS011;5416;59.258;18.128;2023-05-24T13:49:21;4.45;;;4.32;;
10729;SDS011;5416;59.258;18.128;2023-05-24T13:51:49;4.05;;;3.95;;
10729;SDS011;5416;59.258;18.128;2023-05-24T13:54:16;4.72;;;4.53;;
10729;SDS011;5416;59.258;18.128;2023-05-24T13:56:44;4.80;;;4.60;;
10729;SDS011;5416;59.258;18.128;2023-05-24T13:59:13;4.45;;;4.35;;
10729;SDS011;5416;59.258;18.128;2023-05-24T14:01:40;4.70;;;4.50;;
10729;SDS011;5416;59.258;18.128;2023-05-24T14:04:11;4.57;;;4.45;;
10729;SDS011;5416;59.258;18.128;2023-05-24T14:06:39;4.25;;;4.13;;
10729;SDS011;5416;59.258;18.128;2023-05-24T14:09:07;4.30;;;4.20;;
10729;SDS011;5416;59.258;18.128;2023-05-24T14:11:34;4.20;;;4.10;;
10729;SDS011;5416;59.258;18.128;2023-05-24T14:14:02;4.95;;;4.75;;
10729;SDS011;5416;59.258;18.128;2023-05-24T14:16:29;4.40;;;4.30;;
10729;SDS011;5416;59.258;18.128;2023-05-24T14:18:57;4.70;;;4.55;;
10729;SDS011;5416;59.258;18.128;2023-05-24T14:21:24;5.60;;;5.40;;
10729;SDS011;5416;59.258;18.128;2023-05-24T14:23:53;4.90;;;4.70;;
10729;SDS011;5416;59.258;18.128;2023-05-24T14:26:20;5.63;;;5.43;;
10729;SDS011;5416;59.258;18.128;2023-05-24T14:28:47;5.10;;;4.90;;
10729;SDS011;5416;59.258;18.128;2023-05-24T14:31:15;5.30;;;5.10;;
10729;SDS011;5416;59.258;18.128;2023-05-24T14:33:42;5.10;;;4.90;;
10729;SDS011;5416;59.258;18.128;2023-05-24T14:36:09;5.45;;;5.25;;
10729;SDS011;5416;59.258;18.128;2023-05-24T14:38:37;5.30;;;5.10;;
10729;SDS011;5416;59.258;18.128;2023-05-24T14:41:05;5.10;;;4.90;;
10729;SDS011;5416;59.258;18.128;2023-05-24T14:43:33;5.13;;;4.93;;
10729;SDS011;5416;59.258;18.128;2023-05-24T14:46:01;5.18;;;4.97;;
10729;SDS011;5416;59.258;18.128;2023-05-24T14:48:28;4.97;;;4.78;;
10729;SDS011;5416;59.258;18.128;2023-05-24T14:50:56;4.93;;;4.72;;
10729;SDS011;5416;59.258;18.128;2023-05-24T14:53:23;4.85;;;4.65;;